• Join FlightAware (Why Join?)
  • Login
  • US Flag 
04:29PM EDT


 

Airport Tracker/Info


-or-


 

Live Flight TrackerFlight Track Log ✈ SWA1035 ✈ 24-Apr-2013 ✈ KTPA - KMCI

Flight Track Log - Related Links

Times and Time Zones

All times are in EDT time to prevent confusion due to time zone crossing. See the SWA1035 flight status page for this flight to view local times or setup timezone preferences in your user account.

Time Position Orientation Groundspeed Altitude Reporting Facility
EDT Latitude Longitude Course Direction KTS MPH feet Rate Location/Type
10:59AM 27.9167 -82.5667 196° South 188 216 1,900  Level Tampa TRACON
11:01AM 27.8825 -82.6344 240° Southwest 188 216 6,200 2,820 Climbing Jacksonville Center
11:02AM 27.9578 -82.6553 346° North 155 178 9,500 2,640 Climbing Jacksonville Center
11:03AM 28.0433 -82.6808 345° North 216 249 11,500 2,340 Climbing Jacksonville Center
11:04AM 28.1478 -82.6925 354° North 307 353 14,200 2,880 Climbing Jacksonville Center
11:05AM 28.2542 -82.6994 357° North 348 400 17,300 2,640 Climbing Jacksonville Center
11:06AM 28.3669 -82.7061 357° North 380 437 19,500 2,460 Climbing Jacksonville Center
11:07AM 28.4794 -82.7319 349° North 397 457 22,300 2,400 Climbing Jacksonville Center
11:08AM 28.5944 -82.7578 349° North 407 468 24,300 1,920 Climbing Jacksonville Center
11:09AM 28.6925 -82.8264 328° Northwest 413 475 26,200 1,920 Climbing Jacksonville Center
11:10AM 28.7864 -82.9069 323° Northwest 413 475 28,200 2,100 Climbing Jacksonville Center
11:11AM 28.8825 -82.9828 325° Northwest 419 482 30,500 2,160 Climbing Jacksonville Center
11:12AM 28.9764 -83.0586 325° Northwest 419 482 32,600 1,740 Climbing Jacksonville Center
11:13AM 29.0639 -83.1325 324° Northwest 414 476 34,000 660 Climbing Jacksonville Center
11:14AM 29.1514 -83.2064 324° Northwest 402 463 34,000 420 Level Jacksonville Center
11:15AM 29.2408 -83.2758 326° Northwest 394 453 34,900 1,140 Climbing Jacksonville Center
11:16AM 29.3242 -83.3500 322° Northwest 388 447 36,300 1,260 Climbing Jacksonville Center
11:17AM 29.4136 -83.4194 326° Northwest 388 447 37,500 840 Climbing Jacksonville Center
11:18AM 29.4989 -83.4914 324° Northwest 388 447 38,000 240 Climbing Jacksonville Center
11:19AM 29.5861 -83.5636 324° Northwest 388 447 38,000  Level Jacksonville Center
11:20AM 29.6714 -83.6336 325° Northwest 388 447 38,000  Level Jacksonville Center
11:21AM 29.7567 -83.7061 324° Northwest 388 447 38,000  Level Jacksonville Center
11:22AM 29.8458 -83.7761 326° Northwest 388 447 38,000  Level Jacksonville Center
11:23AM 29.9311 -83.8489 324° Northwest 388 447 38,000  Level Jacksonville Center
11:24AM 30.0139 -83.9192 324° Northwest 388 447 38,000  Level Jacksonville Center
11:25AM 30.1072 -83.9969 324° Northwest 383 441 38,000  Level Jacksonville Center
11:26AM 30.1922 -84.0700 323° Northwest 383 441 38,000  Level Jacksonville Center
11:27AM 30.2792 -84.1408 325° Northwest 383 441 38,000  Level Jacksonville Center
11:28AM 30.3517 -84.2019 324° Northwest 378 435 38,000  Level Jacksonville Center
11:29AM 30.4386 -84.2756 324° Northwest 378 435 38,000  Level Jacksonville Center
11:30AM 30.5233 -84.3467 324° Northwest 378 435 38,000  Level Jacksonville Center
11:31AM 30.6100 -84.4372 318° Northwest 378 435 38,000  Level Jacksonville Center
11:32AM 30.6822 -84.5158 317° Northwest 383 441 38,000  Level Jacksonville Center
11:33AM 30.7561 -84.6042 314° West 383 441 38,000  Level Jacksonville Center
11:34AM 30.8361 -84.7000 314° West 383 441 38,000  Level Jacksonville Center
11:35AM 30.9100 -84.7861 315° West 378 435 38,000  Level Jacksonville Center
11:37AM 31.0753 -84.9747 316° Northwest 379 436 38,000  Level Atlanta Center
11:38AM 31.1475 -85.0603 315° West 374 430 38,000  Level Atlanta Center
11:39AM 31.2242 -85.1461 316° Northwest 381 438 38,000  Level Atlanta Center
11:40AM 31.2964 -85.2297 315° West 381 438 38,000  Level Atlanta Center
11:41AM 31.3686 -85.3133 315° West 376 433 38,000  Level Atlanta Center
11:42AM 31.4428 -85.3969 316° Northwest 376 433 38,000  Level Atlanta Center
11:43AM 31.5067 -85.4736 314° West 376 433 38,000  Level Atlanta Center
11:44AM 31.5786 -85.5575 315° West 371 427 38,000  Level Atlanta Center
11:45AM 31.6506 -85.6417 315° West 366 421 38,000  Level Atlanta Center
11:46AM 31.7206 -85.7258 314° West 361 415 38,000  Level Atlanta Center
11:47AM 31.7983 -85.8228 313° West 361 415 38,000  Level Atlanta Center
11:48AM 31.8722 -85.9072 316° Northwest 361 415 38,000  Level Atlanta Center
11:49AM 31.9461 -85.9919 316° Northwest 361 415 38,000  Level Atlanta Center
11:50AM 32.0178 -86.0792 314° West 367 422 38,000  Level Atlanta Center
11:51AM 32.0811 -86.1542 315° West 352 405 38,000  Level Atlanta Center
11:52AM 32.1631 -86.2469 316° Northwest 376 433 38,000  Level Atlanta Center
11:53AM 32.2386 -86.3422 313° West 372 428 38,000  Level Atlanta Center
11:54AM 32.3119 -86.4300 315° West 380 437 38,000  Level Atlanta Center
11:55AM 32.3833 -86.5206 313° West 380 437 38,000  Level Atlanta Center
11:56AM 32.4547 -86.6086 314° West 380 437 38,000  Level Atlanta Center
11:57AM 32.5317 -86.7094 312° West 374 430 38,000  Level Atlanta Center
11:58AM 32.6242 -86.7764 329° Northwest 384 442 38,000  Level Atlanta Center
11:59AM 32.7167 -86.8458 328° Northwest 384 442 38,000  Level Atlanta Center
12:00PM 32.8111 -86.9131 329° Northwest 389 448 38,000  Level Atlanta Center
12:01PM 32.9033 -86.9831 327° Northwest 394 453 38,000  Level Atlanta Center
12:02PM 32.9978 -87.0481 330° Northwest 394 453 38,000  Level Atlanta Center
12:03PM 33.0797 -87.1128 327° Northwest 394 453 38,000  Level Atlanta Center
12:04PM 33.1719 -87.1781 329° Northwest 394 453 38,000  Level Atlanta Center
12:05PM 33.2683 -87.2486 329° Northwest 394 453 38,000  Level Atlanta Center
12:06PM 33.3644 -87.3169 329° Northwest 399 459 38,000  Level Atlanta Center
12:07PM 33.4356 -87.3775 325° Northwest 403 464 38,000  Level Memphis Center
12:08PM 33.4875 -87.4556 309° West 407 468 38,000  Level Memphis Center
12:09PM 33.5569 -87.5653 307° West 393 452 38,000  Level Memphis Center
12:11PM 33.6825 -87.7711 306° West 381 438 38,000  Level Memphis Center
12:12PM 33.7450 -87.8742 306° West 381 438 38,000  Level Memphis Center
12:13PM 33.8181 -87.9819 309° West 378 435 38,000  Level Memphis Center
12:14PM 33.8742 -88.0756 306° West 378 435 38,000  Level Memphis Center
12:15PM 33.9367 -88.1814 305° West 383 441 38,000  Level Memphis Center
12:16PM 34.0008 -88.2875 306° West 390 449 38,000  Level Memphis Center
12:17PM 34.0653 -88.3939 306° West 390 449 38,000  Level Memphis Center
12:18PM 34.1294 -88.5003 306° West 396 456 38,000  Level Memphis Center
12:19PM 34.1936 -88.6044 307° West 396 456 38,000  Level Memphis Center
12:20PM 34.2578 -88.7086 307° West 396 456 38,000  Level Memphis Center
12:21PM 34.3217 -88.8156 306° West 396 456 38,000  Level Memphis Center
12:22PM 34.3897 -88.9275 306° West 384 442 38,000  Level Memphis Center
12:23PM 34.4536 -89.0322 307° West 384 442 38,000  Level Memphis Center
12:24PM 34.5194 -89.1397 307° West 390 449 38,000  Level Memphis Center
12:25PM 34.5831 -89.2472 306° West 398 458 38,000  Level Memphis Center
12:26PM 34.6464 -89.3575 305° West 398 458 38,000  Level Memphis Center
12:27PM 34.7100 -89.4628 306° West 392 451 38,000  Level Memphis Center
12:28PM 34.7733 -89.5683 306° West 392 451 38,000  Level Memphis Center
12:29PM 34.8303 -89.6689 305° West 391 450 38,000  Level Memphis Center
12:30PM 34.8933 -89.7747 306° West 391 450 38,000  Level Memphis Center
12:31PM 34.9711 -89.9036 306° West 411 473 38,000  Level Memphis Center
12:32PM 35.0319 -90.0072 306° West 404 465 38,000  Level Memphis Center
12:33PM 35.1031 -90.1033 312° West 389 448 38,000  Level Memphis Center
12:34PM 35.1742 -90.1997 312° West 384 442 38,000  Level Memphis Center
12:35PM 35.2431 -90.2936 312° West 379 436 38,000  Level Memphis Center
12:36PM 35.3139 -90.3928 311° West 384 442 38,000  Level Memphis Center
12:37PM 35.3828 -90.4894 311° West 384 442 38,000  Level Memphis Center
12:38PM 35.4472 -90.5786 312° West 384 442 38,000  Level Memphis Center
12:39PM 35.5181 -90.6758 312° West 384 442 38,000  Level Memphis Center
12:40PM 35.5886 -90.7758 311° West 389 448 38,000  Level Memphis Center
12:41PM 35.6592 -90.8758 311° West 384 442 38,000  Level Memphis Center
12:42PM 35.7256 -90.9733 310° West 379 436 38,000  Level Memphis Center
12:43PM 35.7981 -91.0736 312° West 385 443 38,000  Level Memphis Center
12:44PM 35.8703 -91.1794 310° West 385 443 38,000  Level Memphis Center
12:45PM 35.9425 -91.2800 312° West 385 443 38,000  Level Memphis Center
12:46PM 36.0128 -91.3783 311° West 385 443 38,000  Level Memphis Center
12:47PM 36.0828 -91.4742 312° West 380 437 38,000  Level Memphis Center
12:48PM 36.1464 -91.5703 309° West 380 437 38,000  Level Memphis Center
12:49PM 36.2144 -91.6689 311° West 380 437 38,000  Level Memphis Center
12:50PM 36.2883 -91.7628 314° West 380 437 38,000  Level Memphis Center
12:51PM 36.3539 -91.8619 309° West 380 437 38,000  Level Memphis Center
12:52PM 36.4217 -91.9558 312° West 380 437 38,000  Level Memphis Center
12:54PM 36.5367 -92.1242 310° West 372 428 38,000  Level Kansas City Center
12:55PM 36.6011 -92.2178 311° West 371 427 38,000  Level Kansas City Center
12:56PM 36.6672 -92.3139 311° West 368 423 38,000  Level Kansas City Center
12:57PM 36.7342 -92.4106 311° West 366 421 38,000  Level Kansas City Center
12:58PM 36.7992 -92.5069 310° West 363 418 38,000  Level Kansas City Center
12:59PM 36.8631 -92.6042 309° West 362 417 38,000  Level Kansas City Center
01:00PM 36.9422 -92.7183 311° West 361 415 38,000  Level Kansas City Center
01:01PM 37.0075 -92.8147 310° West 361 415 38,000 -540 Level Kansas City Center
01:02PM 37.0728 -92.9122 310° West 362 417 37,000 -480 Descending Kansas City Center
01:03PM 37.1369 -93.0075 310° West 358 412 37,000  Level Kansas City Center
01:04PM 37.1994 -93.1019 310° West 353 406 37,000  Level Kansas City Center
01:05PM 37.2625 -93.1944 311° West 348 400 37,000  Level Kansas City Center
01:06PM 37.3244 -93.2872 310° West 345 397 37,000 -540 Level Kansas City Center
01:07PM 37.4197 -93.3714 325° Northwest 356 410 36,000 -540 Descending Kansas City Center
01:08PM 37.5153 -93.4231 337° Northwest 362 417 36,000 -540 Level Kansas City Center
01:09PM 37.6108 -93.4772 336° Northwest 367 422 35,000 -1,260 Descending Kansas City Center
01:10PM 37.7036 -93.5269 337° Northwest 366 421 33,400 -1,740 Descending Kansas City Center
01:11PM 37.7906 -93.5753 336° Northwest 348 400 31,500 -1,800 Descending Kansas City Center
01:12PM 37.8714 -93.6222 335° Northwest 326 375 29,700 -1,740 Descending Kansas City Center
01:13PM 37.9500 -93.6661 336° Northwest 312 359 28,000 -1,620 Descending Kansas City Center
01:14PM 38.0264 -93.7081 337° Northwest 303 349 26,400 -1,680 Descending Kansas City Center
01:16PM 38.1388 -93.7633 335° Northwest  Level FlightAware Approximate
01:16PM 38.2044 -93.8106 335° Northwest 325 374 22,800  Level Kansas City Center
01:17PM 38.2908 -93.8572 337° Northwest 333 383 20,700 -1,860 Descending Kansas City Center
01:18PM 38.3694 -93.9025 336° Northwest 318 366 19,000 -1,440 Descending Kansas City Center
01:19PM 38.4425 -93.9453 335° Northwest 298 343 17,700 -1,560 Descending Kansas City Center
01:20PM 38.5231 -93.9892 337° Northwest 283 326 15,800 -1,800 Descending Kansas City Center
01:22PM 38.6500 -94.0667 335° Northwest 264 304 12,600 -1,860 Descending Kansas City TRACON
01:23PM 38.7000 -94.1167 322° Northwest 272 313 10,700 -1,920 Descending Kansas City TRACON
01:24PM 38.7228 -94.1253 344° North 274 315 10,300 -540 Descending Kansas City Center
01:25PM 38.7858 -94.1942 320° Northwest 266 306 10,000 -180 Descending Kansas City Center
01:26PM 38.8400 -94.2517 320° Northwest 266 306 10,000 -420 Level Kansas City Center
01:27PM 38.8789 -94.3272 303° West 271 312 9,200 -1,260 Descending Kansas City Center
01:28PM 38.9094 -94.4244 292° West 265 305 7,500 -1,140 Descending Kansas City Center
01:29PM 38.9350 -94.5067 292° West 259 298 7,000 -720 Descending Kansas City Center
01:30PM 38.9850 -94.5844 310° West 256 295 6,000 -960 Descending Kansas City Center
01:31PM 39.0322 -94.6464 314° West 255 293 5,000 -900 Descending Kansas City Center
01:32PM 39.0928 -94.7031 324° Northwest 238 274 4,200 -960 Descending Kansas City Center
01:33PM 39.1542 -94.7278 343° North 249 287 3,000 -840 Descending Kansas City Center
01:34PM 39.2178 -94.7278 360° North 206 237 2,500 -720 Descending Kansas City Center
01:35PM 39.2589 -94.7161 12° North 160 184 1,600 -780 Descending Kansas City Center
01:36PM 39.3019 -94.7047 12° North 141 162 1,000 -600 Descending Kansas City Center